Time;durP1;ratioP1;P1;durP2;ratioP2;P2;SDS_P1;SDS_P2;PMS_P1;PMS_P2;Temp;Humidity;BMP_temperature;BMP_pressure;BME280_temperature;BME280_humidity;BME280_pressure;Samples;Min_cycle;Max_cycle;Signal;HPM_P1;HPM_P2
2022/09/21 00:00:19;;;;;;;3.80;2.77;;;;;;;11.58;75.78;102496.44;6154754;28;20254;-78
2022/09/21 00:03:41;;;;;;;6.13;2.50;;;;;;;11.62;76.35;102489.88;6157379;28;20230;-77
2022/09/21 00:07:04;;;;;;;2.63;1.63;;;;;;;11.44;76.51;102496.53;6154973;28;20261;-77
2022/09/21 00:10:25;;;;;;;2.50;2.10;;;;;;;11.38;77.35;102502.31;6139470;28;20987;-76
2022/09/21 00:13:47;;;;;;;4.90;2.57;;;;;;;11.40;76.66;102500.38;6149047;28;20234;-76
2022/09/21 00:17:09;;;;;;;4.83;2.10;;;;;;;11.31;76.76;102503.69;6153409;28;20222;-77
2022/09/21 00:20:30;;;;;;;4.30;3.83;;;;;;;11.39;76.29;102500.50;6157544;28;20266;-77
2022/09/21 00:23:53;;;;;;;2.70;1.97;;;;;;;11.42;76.00;102498.44;6149234;28;20520;-80
2022/09/21 00:27:14;;;;;;;4.70;2.20;;;;;;;11.42;76.41;102503.84;6161573;28;20226;-81
2022/09/21 00:30:35;;;;;;;2.03;1.80;;;;;;;11.42;76.13;102501.16;6158901;28;20520;-82
2022/09/21 00:33:58;;;;;;;5.00;2.67;;;;;;;11.29;77.49;102508.31;6159856;28;20246;-81
2022/09/21 00:37:20;;;;;;;3.00;1.90;;;;;;;11.19;76.98;102510.78;6158115;28;20313;-81
2022/09/21 00:40:41;;;;;;;4.43;1.60;;;;;;;11.18;77.47;102513.59;6147556;28;20253;-80
2022/09/21 00:44:29;;;;;;;4.10;2.27;;;;;;;11.11;77.71;102505.00;6157473;28;20321;-82
2022/09/21 00:47:52;;;;;;;4.87;2.33;;;;;;;10.98;78.18;102506.75;6150124;28;20600;-81
2022/09/21 00:51:18;;;;;;;3.37;2.43;;;;;;;11.03;78.07;102506.47;6150709;28;20233;-81
2022/09/21 00:54:43;;;;;;;5.70;2.27;;;;;;;10.98;78.57;102503.19;6154351;28;20256;-82
2022/09/21 00:58:08;;;;;;;3.33;1.53;;;;;;;10.94;78.26;102507.06;6156472;28;20230;-80
2022/09/21 01:01:30;;;;;;;5.63;2.40;;;;;;;10.95;78.35;102508.81;6149008;28;20325;-79
2022/09/21 01:04:53;;;;;;;5.07;1.73;;;;;;;11.00;78.37;102512.06;6159569;28;20234;-81
2022/09/21 01:08:17;;;;;;;3.97;1.90;;;;;;;10.97;77.97;102509.56;6157465;28;20226;-81
2022/09/21 01:11:50;;;;;;;2.70;2.20;;;;;;;10.93;78.60;102505.34;6156734;28;20313;-80
2022/09/21 01:15:23;;;;;;;2.30;2.10;;;;;;;10.79;77.93;102514.28;6158356;28;20249;-80
2022/09/21 01:18:50;;;;;;;5.27;2.03;;;;;;;10.91;77.97;102516.19;6156510;28;20218;-79
2022/09/21 01:22:22;;;;;;;1.67;1.57;;;;;;;10.81;78.13;102516.88;6156565;28;20233;-81
2022/09/21 01:26:00;;;;;;;3.30;1.37;;;;;;;10.76;78.30;102521.72;6153179;28;20230;-80
2022/09/21 01:29:26;;;;;;;2.03;1.43;;;;;;;10.68;79.25;102518.66;6155866;28;20333;-81
2022/09/21 01:32:55;;;;;;;2.57;1.93;;;;;;;10.63;79.10;102529.72;6149204;28;20638;-77
2022/09/21 01:36:20;;;;;;;3.13;1.93;;;;;;;10.68;78.27;102522.19;6151584;28;20918;-76
2022/09/21 01:39:45;;;;;;;1.80;1.43;;;;;;;10.69;78.55;102528.47;6149629;28;20226;-77
2022/09/21 01:43:26;;;;;;;3.30;1.90;;;;;;;10.65;79.50;102519.69;6151624;28;20239;-77
2022/09/21 01:46:49;;;;;;;5.70;1.53;;;;;;;10.64;79.63;102527.91;6150036;28;20619;-77
2022/09/21 01:50:13;;;;;;;3.00;1.97;;;;;;;10.73;78.65;102519.22;6147294;28;20234;-77
2022/09/21 01:53:41;;;;;;;2.33;1.53;;;;;;;10.53;79.65;102522.28;6161779;28;20215;-75
2022/09/21 01:57:08;;;;;;;3.03;1.50;;;;;;;10.59;79.22;102521.91;6149840;28;20250;-77
2022/09/21 02:00:33;;;;;;;3.93;2.77;;;;;;;10.51;79.12;102527.78;6150378;28;20313;-79
2022/09/21 02:03:59;;;;;;;3.67;1.80;;;;;;;10.54;78.87;102522.19;6151352;28;20258;-77
2022/09/21 02:07:20;;;;;;;1.77;1.53;;;;;;;10.45;79.68;102522.78;6155046;28;20335;-77
2022/09/21 02:10:47;;;;;;;3.27;1.60;;;;;;;10.36;79.83;102524.22;6148065;28;20326;-76
2022/09/21 02:14:11;;;;;;;1.63;1.53;;;;;;;10.44;79.72;102523.72;6147515;28;20507;-77
2022/09/21 02:17:40;;;;;;;1.63;1.53;;;;;;;10.36;79.56;102532.31;6158533;28;20238;-77
2022/09/21 02:21:10;;;;;;;1.80;1.57;;;;;;;10.45;79.59;102525.47;6134749;28;20571;-77
2022/09/21 02:24:39;;;;;;;1.47;1.37;;;;;;;10.42;79.21;102520.25;6147430;28;20230;-78
2022/09/21 02:28:08;;;;;;;9.23;2.50;;;;;;;10.36;79.04;102535.00;6137919;28;20222;-77
2022/09/21 02:31:36;;;;;;;1.73;1.33;;;;;;;10.34;79.59;102534.22;6137845;28;20286;-77
2022/09/21 02:35:03;;;;;;;1.70;1.50;;;;;;;10.34;79.06;102533.34;6153227;28;20231;-78
2022/09/21 02:38:35;;;;;;;1.63;1.43;;;;;;;10.25;79.67;102529.38;6155172;28;20234;-78
2022/09/21 02:42:01;;;;;;;4.40;2.00;;;;;;;10.15;80.31;102533.59;6151279;28;20230;-77
2022/09/21 02:45:26;;;;;;;6.13;2.87;;;;;;;10.17;80.03;102529.00;6154156;28;20234;-78
2022/09/21 02:48:50;;;;;;;3.33;2.53;;;;;;;10.09;80.39;102535.78;6150527;28;20230;-79
2022/09/21 02:52:14;;;;;;;2.63;2.23;;;;;;;10.04;80.06;102537.84;6156951;28;20639;-75
2022/09/21 02:55:39;;;;;;;3.37;2.07;;;;;;;9.98;80.46;102538.22;6146627;28;20250;-76
2022/09/21 02:59:04;;;;;;;3.57;2.50;;;;;;;9.98;80.33;102541.78;6151462;28;20810;-77
2022/09/21 03:02:36;;;;;;;2.63;2.27;;;;;;;10.00;80.08;102539.00;6151557;28;20238;-76
2022/09/21 03:05:57;;;;;;;2.77;1.70;;;;;;;9.94;80.76;102544.75;6150054;28;20233;-77
2022/09/21 03:09:23;;;;;;;2.60;2.40;;;;;;;10.01;80.04;102544.28;6153394;28;20227;-77
2022/09/21 03:12:45;;;;;;;3.47;2.27;;;;;;;9.95;80.23;102543.81;6148886;28;20239;-77
2022/09/21 03:16:07;;;;;;;4.63;2.43;;;;;;;9.89;80.59;102546.88;6144376;28;20242;-77
2022/09/21 03:19:28;;;;;;;6.23;1.83;;;;;;;9.90;80.86;102556.69;6148454;28;20237;-76
2022/09/21 03:22:49;;;;;;;2.23;2.00;;;;;;;9.90;80.36;102564.75;6160385;28;20231;-77
2022/09/21 03:26:10;;;;;;;21.13;16.80;;;;;;;9.82;80.84;102570.59;6146116;28;20238;-77
2022/09/21 03:29:32;;;;;;;7.80;6.07;;;;;;;9.75;81.17;102566.53;6148044;28;20226;-77
2022/09/21 03:32:53;;;;;;;6.33;4.30;;;;;;;9.73;81.86;102556.78;6150425;28;20946;-77
2022/09/21 03:36:14;;;;;;;2.97;2.77;;;;;;;9.75;80.99;102560.25;6146583;28;20277;-76
2022/09/21 03:39:36;;;;;;;2.77;2.13;;;;;;;9.77;81.06;102561.91;6150590;28;20238;-76
2022/09/21 03:42:57;;;;;;;2.23;2.03;;;;;;;9.85;80.38;102558.75;6150394;28;20230;-77
2022/09/21 03:46:19;;;;;;;4.40;2.20;;;;;;;9.89;80.58;102565.72;6148043;28;20231;-77
2022/09/21 03:49:40;;;;;;;6.17;3.10;;;;;;;9.95;80.79;102566.22;6147451;28;20226;-76
2022/09/21 03:53:01;;;;;;;3.37;2.37;;;;;;;9.83;80.40;102566.94;6136990;28;20913;-77
2022/09/21 03:56:22;;;;;;;3.63;2.70;;;;;;;9.84;80.67;102574.06;6152681;28;20231;-77
2022/09/21 03:59:43;;;;;;;15.63;11.60;;;;;;;9.78;81.29;102570.88;6150760;28;20619;-76
2022/09/21 04:03:06;;;;;;;8.87;7.97;;;;;;;9.77;80.94;102580.78;6155382;28;20262;-76
2022/09/21 04:06:27;;;;;;;9.13;7.40;;;;;;;9.73;80.98;102572.94;6149978;28;20234;-77
2022/09/21 04:09:48;;;;;;;6.60;2.90;;;;;;;9.67;81.47;102571.50;6151372;28;20258;-76
2022/09/21 04:13:09;;;;;;;3.43;2.40;;;;;;;9.62;81.61;102571.75;6152126;28;20226;-76
2022/09/21 04:16:30;;;;;;;4.73;2.20;;;;;;;9.64;82.14;102579.72;6151537;28;20230;-77
2022/09/21 04:19:52;;;;;;;2.83;2.50;;;;;;;9.65;81.50;102574.28;6148324;28;20254;-77
2022/09/21 04:23:13;;;;;;;4.03;3.27;;;;;;;9.64;81.65;102568.97;6154513;28;20756;-77
2022/09/21 04:26:36;;;;;;;3.37;2.97;;;;;;;9.65;81.68;102574.28;6155750;28;20559;-76
2022/09/21 04:29:56;;;;;;;4.80;2.50;;;;;;;9.64;81.70;102569.84;6156522;28;20961;-77
2022/09/21 04:33:17;;;;;;;3.23;2.17;;;;;;;9.68;82.03;102571.41;6148615;28;20227;-77
2022/09/21 04:36:40;;;;;;;3.23;2.53;;;;;;;9.74;81.82;102569.31;6148699;28;20235;-77
2022/09/21 04:40:01;;;;;;;2.53;2.33;;;;;;;9.61;82.18;102580.81;6151261;28;21882;-77
2022/09/21 04:43:22;;;;;;;3.30;2.13;;;;;;;9.64;82.27;102571.66;6152356;28;20238;-75
2022/09/21 04:46:46;;;;;;;3.67;2.67;;;;;;;9.60;82.23;102570.97;6152909;28;20238;-76
2022/09/21 04:50:08;;;;;;;5.20;4.67;;;;;;;9.55;81.92;102578.44;6153308;28;20250;-77
2022/09/21 04:53:31;;;;;;;4.07;2.33;;;;;;;9.46;82.87;102578.97;6153431;28;20361;-77
2022/09/21 04:56:52;;;;;;;14.93;12.57;;;;;;;9.46;82.50;102578.09;6154558;28;20233;-77
2022/09/21 05:00:14;;;;;;;11.50;9.53;;;;;;;9.46;82.46;102576.28;6143301;28;20226;-77
2022/09/21 05:03:35;;;;;;;3.57;3.27;;;;;;;9.49;82.40;102578.78;6138066;28;20252;-77
2022/09/21 05:06:57;;;;;;;6.37;2.40;;;;;;;9.54;81.75;102581.22;6136712;28;20761;-76
2022/09/21 05:10:19;;;;;;;3.20;2.47;;;;;;;9.60;81.56;102594.31;6134285;28;20227;-79
2022/09/21 05:13:40;;;;;;;3.03;2.00;;;;;;;9.61;81.65;102591.56;6138488;28;21130;-76
2022/09/21 05:17:01;;;;;;;3.57;2.53;;;;;;;9.58;81.41;102596.25;6155769;28;20238;-76
2022/09/21 05:20:22;;;;;;;3.93;2.73;;;;;;;9.53;81.58;102603.72;6165166;28;20238;-76
2022/09/21 05:23:43;;;;;;;2.03;1.87;;;;;;;9.52;81.56;102601.97;6157661;28;20234;-76
2022/09/21 05:27:06;;;;;;;2.37;1.90;;;;;;;9.46;81.64;102600.53;6160240;28;20249;-76
2022/09/21 05:30:27;;;;;;;2.53;2.30;;;;;;;9.54;81.33;102600.94;6158786;28;20326;-76
2022/09/21 05:33:53;;;;;;;4.07;2.17;;;;;;;9.54;81.51;102603.63;6158339;28;20226;-76
2022/09/21 05:37:33;;;;;;;10.40;6.47;;;;;;;9.57;81.87;102598.06;6157732;28;20238;-76
2022/09/21 05:40:55;;;;;;;14.10;10.13;;;;;;;9.55;81.66;102602.66;6134685;28;20256;-76
2022/09/21 05:44:20;;;;;;;9.80;5.83;;;;;;;9.64;81.97;102601.28;6154458;28;20234;-76
2022/09/21 05:47:54;;;;;;;12.07;10.63;;;;;;;9.72;81.53;102603.53;6159223;28;20234;-76
2022/09/21 05:51:29;;;;;;;9.10;5.87;;;;;;;9.80;81.44;102606.66;6157028;28;20242;-77
2022/09/21 05:55:01;;;;;;;5.10;3.17;;;;;;;9.89;81.34;102603.44;6160797;28;20230;-76
2022/09/21 05:58:32;;;;;;;9.27;7.87;;;;;;;9.95;80.98;102601.22;6159610;28;20238;-76
2022/09/21 06:02:04;;;;;;;10.10;7.50;;;;;;;10.05;81.08;102607.84;6156001;28;20230;-76
2022/09/21 06:05:25;;;;;;;5.80;3.67;;;;;;;10.15;80.27;102602.81;6156090;28;20333;-77
2022/09/21 06:08:46;;;;;;;7.50;4.00;;;;;;;10.27;79.95;102596.66;6168493;28;20226;-76
2022/09/21 06:12:10;;;;;;;3.13;2.50;;;;;;;10.27;80.52;102599.38;6166229;28;20324;-76
2022/09/21 06:15:30;;;;;;;7.37;4.60;;;;;;;10.40;80.47;102609.34;6164994;28;20242;-75
2022/09/21 06:18:53;;;;;;;4.77;2.57;;;;;;;10.45;80.16;102615.28;6167541;28;20234;-77
2022/09/21 06:22:14;;;;;;;4.23;3.63;;;;;;;10.50;80.53;102611.44;6163666;28;20249;-76
2022/09/21 06:25:35;;;;;;;4.30;2.90;;;;;;;10.65;79.97;102616.78;6165646;28;20230;-78
2022/09/21 06:28:56;;;;;;;5.10;2.73;;;;;;;10.71;80.18;102613.72;6170277;28;20241;-77
2022/09/21 06:32:17;;;;;;;5.07;2.73;;;;;;;10.81;80.11;102622.09;6169328;28;20226;-76
2022/09/21 06:35:39;;;;;;;4.07;3.23;;;;;;;10.86;80.29;102625.38;6167123;28;20237;-76
2022/09/21 06:39:00;;;;;;;6.57;3.37;;;;;;;10.90;80.80;102621.53;6168411;28;20635;-76
2022/09/21 06:42:21;;;;;;;6.87;3.57;;;;;;;11.06;81.15;102614.22;6164729;28;20246;-76
2022/09/21 06:45:42;;;;;;;3.03;2.73;;;;;;;11.15;81.48;102619.03;6166202;28;20234;-76
2022/09/21 06:49:03;;;;;;;2.63;2.43;;;;;;;11.33;79.56;102619.72;6163738;28;20238;-76
2022/09/21 06:52:25;;;;;;;5.90;3.00;;;;;;;11.44;79.94;102623.44;6167929;28;20258;-75
2022/09/21 06:55:49;;;;;;;5.73;2.93;;;;;;;11.64;79.94;102624.88;6167226;28;20234;-76
2022/09/21 06:59:11;;;;;;;4.30;2.70;;;;;;;11.73;79.63;102617.03;6163946;28;20226;-75
2022/09/21 07:02:31;;;;;;;4.47;2.90;;;;;;;11.80;79.13;102623.78;6141922;28;20242;-75
2022/09/21 07:05:52;;;;;;;4.77;3.37;;;;;;;11.86;79.29;102617.97;6166685;28;20238;-76
2022/09/21 07:09:15;;;;;;;5.83;3.93;;;;;;;11.88;80.12;102628.66;6166133;28;20234;-77
2022/09/21 07:12:35;;;;;;;2.97;2.37;;;;;;;12.10;79.53;102628.13;6166776;28;20230;-76
2022/09/21 07:15:56;;;;;;;5.70;4.17;;;;;;;12.29;78.21;102634.88;6160451;28;20234;-76
2022/09/21 07:19:18;;;;;;;4.97;3.90;;;;;;;12.34;78.69;102631.84;6163014;28;20226;-78
2022/09/21 07:22:38;;;;;;;3.73;3.40;;;;;;;12.58;77.56;102635.56;6161804;28;20234;-75
2022/09/21 07:26:05;;;;;;;7.37;2.90;;;;;;;12.67;78.11;102634.94;6162853;28;20231;-75
2022/09/21 07:29:25;;;;;;;5.57;4.40;;;;;;;12.75;78.40;102637.97;6161036;28;20247;-76
2022/09/21 07:32:46;;;;;;;6.80;4.67;;;;;;;12.97;77.19;102637.34;6164194;28;20230;-75
2022/09/21 07:36:10;;;;;;;8.53;4.57;;;;;;;13.12;77.27;102634.44;6144837;28;20321;-76
2022/09/21 07:39:31;;;;;;;6.63;4.30;;;;;;;13.19;77.48;102638.44;6166009;28;20234;-76
2022/09/21 07:42:58;;;;;;;6.60;4.30;;;;;;;13.35;76.54;102636.38;6165193;28;20230;-75
2022/09/21 07:46:19;;;;;;;8.20;3.40;;;;;;;13.43;76.27;102641.25;6161401;28;20230;-75
2022/09/21 07:49:40;;;;;;;12.37;4.80;;;;;;;13.44;76.64;102635.72;6161688;28;20605;-76
2022/09/21 07:53:01;;;;;;;4.80;4.40;;;;;;;13.46;76.17;102639.16;6161190;28;20976;-76
2022/09/21 07:56:23;;;;;;;12.30;4.37;;;;;;;13.60;75.95;102635.47;6164058;28;20252;-76
2022/09/21 07:59:44;;;;;;;6.17;5.03;;;;;;;13.74;75.28;102638.03;6160433;28;20274;-74
2022/09/21 08:03:05;;;;;;;6.03;4.97;;;;;;;13.86;74.50;102634.38;6158263;28;20604;-76
2022/09/21 08:06:29;;;;;;;4.60;4.20;;;;;;;13.92;74.12;102636.66;6162460;28;20235;-76
2022/09/21 08:09:50;;;;;;;7.47;4.60;;;;;;;14.15;73.80;102643.03;6157154;28;20234;-77
2022/09/21 08:13:11;;;;;;;5.90;4.17;;;;;;;14.26;73.14;102638.56;6164456;28;20230;-75
2022/09/21 08:16:33;;;;;;;11.00;5.17;;;;;;;14.39;73.03;102644.78;6155818;28;20509;-76
2022/09/21 08:19:54;;;;;;;8.43;5.30;;;;;;;14.26;72.63;102645.81;6159372;28;20234;-77
2022/09/21 08:23:16;;;;;;;6.90;4.70;;;;;;;14.26;73.05;102652.13;6160389;28;20457;-77
2022/09/21 08:26:36;;;;;;;14.70;3.33;;;;;;;14.32;72.04;102651.69;6161119;28;20753;-77
2022/09/21 08:29:58;;;;;;;4.63;4.23;;;;;;;14.25;72.58;102650.38;6160162;28;20601;-75
2022/09/21 08:33:20;;;;;;;16.07;7.37;;;;;;;14.48;72.09;102645.94;6160323;28;20512;-77
2022/09/21 08:36:41;;;;;;;4.77;3.57;;;;;;;14.71;71.41;102642.31;6162861;28;20613;-76
2022/09/21 08:40:02;;;;;;;5.03;3.23;;;;;;;14.85;71.26;102647.50;6166732;28;21068;-76
2022/09/21 08:43:32;;;;;;;8.23;4.67;;;;;;;14.87;70.76;102644.69;6154105;28;20246;-77
2022/09/21 08:47:03;;;;;;;6.03;3.00;;;;;;;14.84;70.07;102648.50;6160998;28;20341;-78
2022/09/21 08:50:36;;;;;;;3.83;2.77;;;;;;;14.77;68.73;102647.25;6155083;28;20230;-75
2022/09/21 08:54:01;;;;;;;2.97;2.37;;;;;;;14.83;68.68;102648.63;6153688;28;20238;-76
2022/09/21 08:57:26;;;;;;;3.80;1.93;;;;;;;14.64;68.00;102654.66;6158942;28;20231;-75
2022/09/21 09:00:49;;;;;;;2.27;1.47;;;;;;;14.51;67.82;102653.84;6157809;28;20235;-76
2022/09/21 09:04:31;;;;;;;1.50;1.43;;;;;;;14.43;66.99;102660.84;6160296;28;20227;-77
2022/09/21 09:08:12;;;;;;;7.40;2.80;;;;;;;14.77;67.76;102658.13;6157207;28;20249;-76
2022/09/21 09:11:44;;;;;;;4.33;1.63;;;;;;;15.06;67.25;102653.97;6156434;28;20620;-77
2022/09/21 09:15:31;;;;;;;2.93;1.20;;;;;;;15.03;67.17;102659.66;6159067;28;20222;-77
2022/09/21 09:18:54;;;;;;;2.17;1.07;;;;;;;14.99;67.48;102657.31;6163282;28;20226;-78
2022/09/21 09:22:21;;;;;;;4.93;2.50;;;;;;;15.51;65.51;102665.78;6165657;28;20234;-78
2022/09/21 09:25:46;;;;;;;3.73;1.33;;;;;;;15.29;64.85;102668.44;6156934;28;20321;-79
2022/09/21 09:29:18;;;;;;;2.70;1.60;;;;;;;15.72;64.20;102663.16;6162687;28;20245;-73
2022/09/21 09:32:46;;;;;;;1.70;1.60;;;;;;;15.58;63.00;102658.00;6160094;28;20672;-73
2022/09/21 09:36:12;;;;;;;1.37;1.10;;;;;;;15.62;63.34;102660.34;6158293;28;20226;-73
2022/09/21 09:39:33;;;;;;;10.00;1.73;;;;;;;15.41;63.04;102653.88;6158156;28;20234;-77
2022/09/21 09:43:05;;;;;;;3.73;1.43;;;;;;;15.83;62.48;102657.72;6158544;28;20226;-78
2022/09/21 09:46:33;;;;;;;1.37;1.27;;;;;;;15.81;60.72;102662.41;6171256;28;20238;-76
2022/09/21 09:50:05;;;;;;;1.40;1.13;;;;;;;16.36;60.36;102664.09;6162174;28;20241;-78
2022/09/21 09:53:27;;;;;;;3.30;1.80;;;;;;;17.02;59.27;102661.03;6164050;28;20788;-77
2022/09/21 09:56:48;;;;;;;1.93;1.30;;;;;;;17.42;57.39;102658.38;6165503;28;20230;-78
2022/09/21 10:00:16;;;;;;;3.73;1.57;;;;;;;18.02;56.83;102654.75;6162440;28;20582;-80
2022/09/21 10:03:37;;;;;;;3.07;1.23;;;;;;;18.01;55.11;102658.47;6161302;28;20233;-78
2022/09/21 10:06:58;;;;;;;6.60;2.00;;;;;;;17.67;54.69;102652.47;6161082;28;20230;-78
2022/09/21 10:10:31;;;;;;;2.97;1.50;;;;;;;18.21;54.33;102654.78;6157583;28;20238;-78
2022/09/21 10:13:53;;;;;;;3.35;1.17;;;;;;;17.74;53.19;102653.66;6160571;28;20231;-79
2022/09/21 10:17:18;;;;;;;1.38;1.10;;;;;;;17.49;53.16;102651.38;6161170;28;20310;-78
2022/09/21 10:20:39;;;;;;;2.63;1.15;;;;;;;18.01;52.77;102658.47;6162281;28;20266;-77
2022/09/21 10:24:02;;;;;;;3.08;0.90;;;;;;;17.92;54.81;102651.13;6161828;28;20230;-77
2022/09/21 10:27:26;;;;;;;2.08;1.45;;;;;;;17.92;53.19;102653.88;6160126;28;20230;-78
2022/09/21 10:30:47;;;;;;;4.00;2.05;;;;;;;18.51;52.31;102654.66;6158533;28;20280;-77
2022/09/21 10:34:14;;;;;;;3.55;1.35;;;;;;;22.06;46.28;102638.16;6164731;28;20226;-78
2022/09/21 10:37:39;;;;;;;1.83;1.63;;;;;;;26.36;34.95;102637.03;6163086;28;20639;-77
2022/09/21 10:40:59;;;;;;;1.83;0.80;;;;;;;29.47;29.97;102628.63;6154435;28;20239;-77
2022/09/21 10:44:23;;;;;;;1.27;1.00;;;;;;;27.87;29.70;102630.75;6163263;28;20238;-78
2022/09/21 10:47:46;;;;;;;1.67;0.95;;;;;;;31.37;25.63;102627.38;6158148;28;20227;-78
2022/09/21 10:51:26;;;;;;;0.85;0.73;;;;;;;28.56;28.12;102626.72;6159141;28;20222;-77
2022/09/21 10:54:50;;;;;;;2.13;1.25;;;;;;;25.31;32.88;102621.81;6159619;28;20285;-77
2022/09/21 10:58:14;;;;;;;3.28;0.85;;;;;;;28.94;27.50;102613.06;6158340;28;20235;-77
2022/09/21 11:01:35;;;;;;;1.83;1.00;;;;;;;31.70;24.65;102611.16;6169127;28;20775;-77
2022/09/21 11:05:02;;;;;;;0.77;0.60;;;;;;;34.01;21.35;102615.41;6159733;28;20243;-76
2022/09/21 11:08:30;;;;;;;0.70;0.70;;;;;;;33.52;19.39;102605.69;6159421;28;20234;-79
2022/09/21 11:11:57;;;;;;;0.50;0.50;;;;;;;33.52;20.36;102603.72;6173750;28;20229;-78
2022/09/21 11:15:29;;;;;;;1.05;0.85;;;;;;;34.00;18.27;102611.78;6167187;28;20231;-77
2022/09/21 11:18:58;;;;;;;0.40;0.40;;;;;;;34.17;19.25;102607.03;6160368;28;20238;-78
2022/09/21 11:22:25;;;;;;;0.60;0.60;;;;;;;35.95;18.28;102606.84;6156300;28;20230;-77
2022/09/21 11:25:58;;;;;;;0.85;0.82;;;;;;;37.26;17.67;102613.72;6167283;28;20225;-78
2022/09/21 11:29:24;;;;;;;0.70;0.63;;;;;;;30.41;21.50;102613.00;6163510;28;20250;-77
2022/09/21 11:33:01;;;;;;;0.57;0.57;;;;;;;33.55;20.54;102607.97;6158352;28;20226;-78
2022/09/21 11:36:37;;;;;;;0.50;0.50;;;;;;;35.88;16.52;102604.22;6163995;28;20234;-78
2022/09/21 11:40:08;;;;;;;1.08;0.28;;;;;;;36.22;16.93;102604.06;6163781;28;20967;-78
2022/09/21 11:43:46;;;;;;;0.43;0.32;;;;;;;37.18;14.75;102606.63;6166171;28;20230;-77
2022/09/21 11:47:18;;;;;;;0.45;0.45;;;;;;;30.67;19.09;102611.94;6164256;28;20242;-78
2022/09/21 11:50:50;;;;;;;22.50;11.13;;;;;;;27.46;24.97;102609.47;6161567;28;20234;-77
2022/09/21 11:54:30;;;;;;;2.20;1.70;;;;;;;32.72;20.20;102602.59;6163239;28;20230;-77
2022/09/21 11:57:58;;;;;;;0.88;0.82;;;;;;;32.28;20.75;102600.28;6167005;28;20503;-78
2022/09/21 12:01:38;;;;;;;1.33;0.68;;;;;;;24.40;29.91;102612.84;6159646;28;20227;-79
2022/09/21 12:05:06;;;;;;;1.27;0.52;;;;;;;22.76;34.24;102611.13;6165087;28;20227;-78
2022/09/21 12:08:54;;;;;;;0.75;0.75;;;;;;;22.72;35.10;102607.84;6162669;28;20242;-77
2022/09/21 12:12:21;;;;;;;2.00;1.60;;;;;;;29.69;24.82;102596.66;6161398;28;20226;-78
2022/09/21 12:15:48;;;;;;;3.78;1.50;;;;;;;33.74;20.25;102581.50;6159530;28;20250;-78
2022/09/21 12:19:20;;;;;;;1.15;0.95;;;;;;;33.57;18.87;102583.38;6160903;28;20496;-78
2022/09/21 12:22:45;;;;;;;0.40;0.40;;;;;;;31.22;21.49;102576.72;6157851;28;20529;-78
2022/09/21 12:26:07;;;;;;;1.13;1.02;;;;;;;30.58;22.56;102579.91;6181074;28;20320;-78
2022/09/21 12:29:35;;;;;;;0.60;0.40;;;;;;;34.55;18.54;102573.59;6163222;28;20982;-78
2022/09/21 12:33:01;;;;;;;1.63;0.60;;;;;;;31.93;19.90;102563.88;6163691;28;20230;-78
2022/09/21 12:36:28;;;;;;;1.00;0.90;;;;;;;31.81;20.59;102570.44;6163805;28;20349;-78
2022/09/21 12:39:54;;;;;;;1.40;0.45;;;;;;;30.07;22.33;102566.09;6162361;28;20226;-79
2022/09/21 12:43:26;;;;;;;2.30;0.45;;;;;;;32.44;20.17;102554.88;6163721;28;20545;-79
2022/09/21 12:46:54;;;;;;;3.35;0.93;;;;;;;31.30;21.02;102557.75;6158355;28;20226;-79
2022/09/21 12:50:22;;;;;;;0.50;0.50;;;;;;;34.15;18.44;102563.59;6159225;28;20398;-78
2022/09/21 12:53:47;;;;;;;0.52;0.50;;;;;;;34.88;17.94;102555.91;6159325;28;20222;-78
2022/09/21 12:57:15;;;;;;;0.98;0.55;;;;;;;32.80;19.28;102557.53;6162456;28;20226;-79
2022/09/21 13:00:42;;;;;;;0.50;0.50;;;;;;;33.86;18.47;102559.91;6155940;28;20231;-80
2022/09/21 13:04:23;;;;;;;0.65;0.65;;;;;;;35.18;18.10;102555.53;6158355;28;20309;-77
2022/09/21 13:07:59;;;;;;;0.98;0.95;;;;;;;32.19;19.64;102546.69;6162841;28;20230;-79
2022/09/21 13:11:23;;;;;;;1.00;0.90;;;;;;;31.67;19.88;102543.81;6155536;28;20239;-78
2022/09/21 13:14:47;;;;;;;1.15;0.63;;;;;;;29.03;22.33;102547.88;6160573;28;20233;-81
2022/09/21 13:18:18;;;;;;;0.73;0.73;;;;;;;29.86;22.96;102549.75;6166266;28;20222;-79
2022/09/21 13:21:41;;;;;;;2.17;0.60;;;;;;;31.07;20.68;102538.06;6149048;28;20226;-78
2022/09/21 13:25:07;;;;;;;0.80;0.60;;;;;;;28.21;23.10;102548.31;6162988;28;20246;-80
2022/09/21 13:29:03;;;;;;;1.10;0.57;;;;;;;31.77;20.41;102532.94;6166359;28;20238;-81
2022/09/21 13:32:24;;;;;;;0.50;0.50;;;;;;;31.12;20.54;102537.38;6157257;28;20324;-80
2022/09/21 13:35:53;;;;;;;0.95;0.55;;;;;;;28.83;22.23;102542.34;6162080;28;20246;-79
2022/09/21 13:39:17;;;;;;;1.25;0.80;;;;;;;27.58;23.20;102540.41;6166992;28;20249;-82
2022/09/21 13:42:46;;;;;;;1.05;0.60;;;;;;;23.70;28.66;102545.94;6160069;28;20238;-80
2022/09/21 13:46:09;;;;;;;0.77;0.50;;;;;;;22.48;32.55;102546.47;6163806;28;20360;-80
2022/09/21 13:49:38;;;;;;;0.68;0.68;;;;;;;22.48;33.62;102541.84;6164636;28;20222;-79
2022/09/21 13:53:02;;;;;;;1.40;0.95;;;;;;;22.78;33.81;102534.78;6163026;28;20238;-79
2022/09/21 13:56:28;;;;;;;0.47;0.47;;;;;;;21.87;35.58;102545.06;6163010;28;20230;-80
2022/09/21 14:00:06;;;;;;;2.42;0.85;;;;;;;21.23;36.99;102539.34;6163358;28;20681;-79
2022/09/21 14:03:37;;;;;;;0.88;0.50;;;;;;;20.63;36.39;102541.22;6162295;28;20258;-81
2022/09/21 14:07:03;;;;;;;1.08;0.63;;;;;;;20.84;36.71;102533.44;6159837;28;20596;-81
2022/09/21 14:10:25;;;;;;;1.27;0.50;;;;;;;20.95;36.01;102535.91;6163683;28;20234;-79
2022/09/21 14:14:01;;;;;;;4.13;2.78;;;;;;;21.44;36.30;102528.81;6158938;28;20317;-78
2022/09/21 14:17:37;;;;;;;5.07;2.63;;;;;;;20.79;37.47;102527.63;6163167;28;20234;-78
2022/09/21 14:21:18;;;;;;;3.15;1.23;;;;;;;20.92;37.70;102527.16;6159879;28;20238;-77
2022/09/21 14:24:41;;;;;;;1.25;0.75;;;;;;;20.63;38.42;102516.56;6155810;28;20252;-76
2022/09/21 14:28:10;;;;;;;0.95;0.73;;;;;;;21.07;36.69;102512.69;6164012;28;20277;-77
2022/09/21 14:31:36;;;;;;;0.70;0.70;;;;;;;20.80;38.79;102514.78;6164880;28;20246;-79
2022/09/21 14:35:06;;;;;;;1.48;1.05;;;;;;;22.45;35.62;102511.06;6163970;28;20214;-77
2022/09/21 14:38:35;;;;;;;4.38;3.58;;;;;;;23.58;33.85;102508.84;6167243;28;20226;-78
2022/09/21 14:42:00;;;;;;;26.40;18.33;;;;;;;21.64;37.85;102511.00;6156129;28;20516;-79
2022/09/21 14:45:26;;;;;;;13.48;9.38;;;;;;;22.04;36.81;102508.38;6164977;28;20222;-78
2022/09/21 14:48:59;;;;;;;7.43;5.20;;;;;;;23.15;34.52;102498.38;6160448;28;20234;-77
2022/09/21 14:52:38;;;;;;;8.80;5.53;;;;;;;23.66;33.99;102498.63;6162211;28;20329;-78
2022/09/21 14:56:19;;;;;;;11.55;7.13;;;;;;;24.24;31.73;102498.03;6144269;28;20227;-77
2022/09/21 14:59:54;;;;;;;5.88;3.97;;;;;;;23.60;29.51;102493.84;6150389;28;20230;-78
2022/09/21 15:03:42;;;;;;;7.72;5.90;;;;;;;23.90;32.02;102486.59;6153195;28;20230;-78
2022/09/21 15:11:06;;;;;;;10.05;6.45;;;;;;;23.65;32.05;102483.16;6160708;28;20238;-77
2022/09/21 15:14:34;;;;;;;28.55;24.48;;;;;;;23.63;30.33;102471.47;6164607;28;20597;-78
2022/09/21 15:17:58;;;;;;;9.38;7.45;;;;;;;23.66;32.10;102473.84;6157239;28;20230;-76
2022/09/21 15:21:25;;;;;;;9.20;6.88;;;;;;;23.45;31.33;102478.28;6159267;28;20593;-77
2022/09/21 15:24:51;;;;;;;6.63;4.38;;;;;;;23.50;30.91;102473.09;6160052;28;20226;-77
2022/09/21 15:28:12;;;;;;;3.65;2.22;;;;;;;23.36;31.32;102472.00;6164451;28;20714;-76
2022/09/21 15:31:36;;;;;;;1.08;0.80;;;;;;;23.23;31.10;102465.31;6158296;28;20670;-77
2022/09/21 15:35:00;;;;;;;6.28;5.63;;;;;;;22.91;31.93;102461.66;6160328;28;20226;-77
2022/09/21 15:38:28;;;;;;;24.35;16.77;;;;;;;22.97;33.27;102463.69;6163486;28;20234;-76
2022/09/21 15:42:05;;;;;;;9.93;6.85;;;;;;;22.94;30.90;102468.72;6155400;28;20234;-76
2022/09/21 15:45:28;;;;;;;20.55;14.13;;;;;;;22.35;31.70;102461.78;6163868;28;20238;-78
2022/09/21 15:48:51;;;;;;;11.50;8.63;;;;;;;22.43;33.95;102464.53;6157072;28;20491;-78
2022/09/21 15:52:23;;;;;;;11.30;7.75;;;;;;;22.73;33.39;102461.06;6152291;28;20258;-78
2022/09/21 15:55:47;;;;;;;5.45;3.80;;;;;;;22.90;31.17;102456.34;6156363;28;20230;-77
2022/09/21 15:59:16;;;;;;;7.32;6.40;;;;;;;22.86;32.89;102458.56;6150318;28;20230;-89
2022/09/21 16:02:40;;;;;;;8.25;6.38;;;;;;;22.88;32.25;102459.25;6151235;28;20226;-77